Time;durP1;ratioP1;P1;durP2;ratioP2;P2;SDS_P1;SDS_P2;PMS_P1;PMS_P2;Temp;Humidity;BMP_temperature;BMP_pressure;BME280_temperature;BME280_humidity;BME280_pressure;Samples;Min_cycle;Max_cycle;Signal;HPM_P1;HPM_P2
2022/07/31 00:00:30;;;;;;;3.80;3.25;;;;;;;20.26;51.55;96941.75;4900432;29;20135;-74
2022/07/31 00:02:58;;;;;;;4.78;3.05;;;;;;;20.25;51.48;96940.16;4900859;29;20048;-75
2022/07/31 00:05:26;;;;;;;4.45;2.88;;;;;;;20.24;51.59;96935.91;4900625;29;20141;-74
2022/07/31 00:07:55;;;;;;;3.15;2.90;;;;;;;20.25;51.75;96934.88;4900494;29;20053;-74
2022/07/31 00:10:23;;;;;;;3.55;3.25;;;;;;;20.23;51.70;96939.59;4900360;29;20128;-75
2022/07/31 00:12:51;;;;;;;4.43;3.38;;;;;;;20.22;51.77;96943.28;4900463;29;20087;-74
2022/07/31 00:15:19;;;;;;;5.18;3.30;;;;;;;20.21;51.84;96941.69;4900513;29;20242;-74
2022/07/31 00:17:48;;;;;;;4.30;3.78;;;;;;;20.18;51.93;96942.94;4900164;29;20424;-75
2022/07/31 00:20:17;;;;;;;4.65;3.67;;;;;;;20.14;52.12;96945.25;4899943;29;20528;-75
2022/07/31 00:22:46;;;;;;;3.55;3.25;;;;;;;20.07;52.19;96949.88;4900463;29;20049;-75
2022/07/31 00:25:16;;;;;;;6.75;3.30;;;;;;;20.04;52.50;96945.03;4900265;29;20055;-74
2022/07/31 00:27:44;;;;;;;4.45;3.20;;;;;;;20.02;52.52;96941.81;4900017;29;20052;-74
2022/07/31 00:30:12;;;;;;;5.78;3.78;;;;;;;20.00;52.60;96943.09;4899628;29;20580;-74
2022/07/31 00:32:41;;;;;;;3.92;3.38;;;;;;;19.98;52.65;96942.53;4899882;29;20053;-74
2022/07/31 00:35:09;;;;;;;3.50;3.20;;;;;;;19.92;52.67;96941.63;4900063;29;20057;-74
2022/07/31 00:37:38;;;;;;;4.00;3.33;;;;;;;19.87;52.70;96942.28;4899983;29;20112;-74
2022/07/31 00:40:11;;;;;;;4.72;3.75;;;;;;;19.81;52.98;96939.78;4899398;29;20052;-74
2022/07/31 00:42:40;;;;;;;3.63;3.30;;;;;;;19.71;53.29;96943.81;4899955;29;20544;-74
2022/07/31 00:45:09;;;;;;;3.97;3.42;;;;;;;19.65;53.42;96942.06;4901283;29;20112;-74
2022/07/31 00:47:39;;;;;;;4.65;3.60;;;;;;;19.61;53.36;96940.91;4899953;29;20743;-76
2022/07/31 00:50:08;;;;;;;3.40;3.10;;;;;;;19.55;53.59;96940.00;4899791;29;20429;-75
2022/07/31 00:52:36;;;;;;;3.70;3.40;;;;;;;19.49;53.76;96938.28;4899802;29;20095;-75
2022/07/31 00:55:05;;;;;;;3.72;3.42;;;;;;;19.45;53.93;96938.97;4899446;29;20052;-74
2022/07/31 00:57:32;;;;;;;6.15;3.72;;;;;;;19.40;54.13;96938.84;4898649;29;20088;-74
2022/07/31 01:00:01;;;;;;;4.25;3.85;;;;;;;19.34;54.35;96946.66;4899058;29;20092;-74
2022/07/31 01:02:30;;;;;;;4.68;3.95;;;;;;;19.29;54.44;96943.91;4899640;29;20130;-74
2022/07/31 01:04:57;;;;;;;4.05;3.60;;;;;;;19.25;54.55;96940.09;4899475;29;20108;-74
2022/07/31 01:07:25;;;;;;;6.57;3.53;;;;;;;19.23;54.59;96939.53;4899367;29;20161;-74
2022/07/31 01:09:54;;;;;;;3.90;3.55;;;;;;;19.18;54.80;96942.06;4899686;29;20497;-75
2022/07/31 01:12:29;;;;;;;6.65;3.95;;;;;;;19.16;55.06;96932.75;4899107;29;20056;-74
2022/07/31 01:15:02;;;;;;;4.07;3.55;;;;;;;19.14;55.00;96930.31;4899397;29;20143;-74
2022/07/31 01:17:31;;;;;;;5.63;3.67;;;;;;;19.13;55.14;96932.16;4927873;23;20079;-81
2022/07/31 01:19:59;;;;;;;3.70;3.40;;;;;;;19.12;55.17;96933.19;4910190;29;20080;-75
2022/07/31 01:22:52;;;;;;;3.88;3.58;;;;;;;19.12;55.36;96937.66;4911530;29;20049;-78
2022/07/31 01:25:33;;;;;;;4.65;3.95;;;;;;;19.12;55.25;96935.03;4912120;29;20076;-78
2022/07/31 01:28:12;;;;;;;4.30;3.10;;;;;;;19.09;55.32;96938.94;4912943;29;20083;-78
2022/07/31 01:30:47;;;;;;;3.75;3.33;;;;;;;19.10;55.32;96934.44;4912137;29;20524;-79
2022/07/31 01:33:38;;;;;;;3.97;3.67;;;;;;;19.12;55.22;96930.53;4911828;29;20581;-79
2022/07/31 01:36:10;;;;;;;5.72;3.28;;;;;;;19.14;55.05;96930.31;4911240;29;20523;-77
2022/07/31 01:38:42;;;;;;;6.25;3.97;;;;;;;19.10;55.20;96918.59;4910182;29;20131;-78
2022/07/31 01:41:16;;;;;;;5.15;3.70;;;;;;;19.05;55.21;96934.34;4909975;29;20502;-79
2022/07/31 01:43:47;;;;;;;3.78;3.47;;;;;;;18.98;55.52;96926.50;4909963;29;20073;-77
2022/07/31 01:46:20;;;;;;;4.25;3.63;;;;;;;18.91;55.84;96923.97;4910422;29;20509;-80
2022/07/31 01:48:48;;;;;;;4.03;3.70;;;;;;;18.89;55.59;96922.56;4909959;29;20048;-77
2022/07/31 01:51:17;;;;;;;4.50;4.10;;;;;;;18.89;55.90;96930.50;4909045;29;20569;-80
2022/07/31 01:53:47;;;;;;;4.35;3.60;;;;;;;18.90;55.81;96930.28;4909362;29;20060;-78
2022/07/31 01:56:17;;;;;;;6.30;3.70;;;;;;;18.88;55.86;96920.97;4908761;29;20547;-78
2022/07/31 01:58:47;;;;;;;4.10;3.70;;;;;;;18.86;56.07;96921.19;4908200;29;20474;-78
2022/07/31 02:01:18;;;;;;;7.40;4.05;;;;;;;18.83;56.16;96918.19;4907711;29;20041;-78
2022/07/31 02:03:49;;;;;;;4.95;3.90;;;;;;;18.80;56.09;96919.44;4907756;29;20076;-78
2022/07/31 02:06:23;;;;;;;7.53;3.80;;;;;;;18.76;56.21;96915.63;4908267;29;20076;-78
2022/07/31 02:08:53;;;;;;;7.13;3.53;;;;;;;18.74;56.29;96920.31;4910954;29;20116;-80
2022/07/31 02:11:21;;;;;;;3.88;3.58;;;;;;;18.73;56.38;96929.28;4910938;29;20048;-80
2022/07/31 02:13:52;;;;;;;4.40;4.00;;;;;;;18.72;56.40;96917.91;4911959;29;20080;-79
2022/07/31 02:16:22;;;;;;;4.10;3.70;;;;;;;18.73;56.49;96913.41;4909745;29;20085;-81
2022/07/31 02:18:52;;;;;;;4.20;3.80;;;;;;;18.72;56.42;96917.09;4909173;29;20421;-81
2022/07/31 02:21:20;;;;;;;4.82;3.90;;;;;;;18.73;56.65;96918.69;4908068;29;20072;-79
2022/07/31 02:23:47;;;;;;;3.83;3.53;;;;;;;18.76;56.44;96912.97;4908510;29;20079;-78
2022/07/31 02:26:16;;;;;;;3.85;3.58;;;;;;;18.77;56.41;96914.56;4907878;29;20116;-78
2022/07/31 02:28:46;;;;;;;3.92;3.38;;;;;;;18.74;56.48;96915.03;4908136;29;20060;-79
2022/07/31 02:31:16;;;;;;;4.20;3.80;;;;;;;18.71;56.72;96910.19;4908637;29;20138;-79
2022/07/31 02:33:46;;;;;;;4.30;3.85;;;;;;;18.66;56.77;96912.72;4907426;29;20055;-80
2022/07/31 02:36:16;;;;;;;5.82;3.55;;;;;;;18.61;56.88;96910.75;4908465;29;20108;-79
2022/07/31 02:38:44;;;;;;;3.88;3.53;;;;;;;18.56;57.06;96907.16;4907208;29;20064;-78
2022/07/31 02:41:14;;;;;;;5.13;4.10;;;;;;;18.51;57.32;96911.28;4905948;29;20135;-80
2022/07/31 02:43:44;;;;;;;5.10;3.72;;;;;;;18.48;57.38;96906.44;4906655;29;20635;-79
2022/07/31 02:46:13;;;;;;;4.35;3.65;;;;;;;18.44;57.55;96907.13;4907176;29;20060;-78
2022/07/31 02:48:41;;;;;;;6.72;4.00;;;;;;;18.42;57.63;96902.06;4905495;29;20494;-75
2022/07/31 02:51:11;;;;;;;5.22;3.70;;;;;;;18.39;57.68;96910.44;4905619;29;20084;-78
2022/07/31 02:53:40;;;;;;;4.40;4.00;;;;;;;18.36;57.85;96904.78;4905248;29;20060;-77
2022/07/31 02:56:08;;;;;;;5.63;4.45;;;;;;;18.33;57.89;96909.50;4905439;29;20090;-78
2022/07/31 02:58:40;;;;;;;3.88;3.58;;;;;;;18.31;58.20;96908.09;4905817;29;20064;-77
2022/07/31 03:01:09;;;;;;;5.15;3.70;;;;;;;18.26;58.20;96908.78;4904910;29;20049;-77
2022/07/31 03:03:37;;;;;;;4.93;4.15;;;;;;;18.23;58.22;96903.13;4904939;29;20514;-77
2022/07/31 03:06:04;;;;;;;4.80;3.80;;;;;;;18.21;58.35;96905.19;4904238;29;20052;-77
2022/07/31 03:08:33;;;;;;;6.38;3.60;;;;;;;18.18;58.65;96906.44;4909116;29;20075;-78
2022/07/31 03:11:01;;;;;;;4.28;3.88;;;;;;;18.17;58.47;96915.41;4909625;29;20056;-79
2022/07/31 03:13:31;;;;;;;4.60;4.00;;;;;;;18.17;58.72;96909.28;4909595;29;20055;-80
2022/07/31 03:15:59;;;;;;;6.82;4.35;;;;;;;18.16;58.52;96913.78;4908789;29;20531;-79
2022/07/31 03:18:28;;;;;;;6.38;3.95;;;;;;;18.16;58.62;96908.50;4908311;29;20130;-78
2022/07/31 03:20:56;;;;;;;7.43;4.07;;;;;;;18.15;58.54;96908.69;4907343;29;20112;-78
2022/07/31 03:23:27;;;;;;;6.38;4.32;;;;;;;18.14;58.76;96913.19;4906899;29;20072;-78
2022/07/31 03:25:57;;;;;;;4.25;3.90;;;;;;;18.15;58.57;96921.91;4906870;29;20489;-78
2022/07/31 03:28:24;;;;;;;3.97;3.67;;;;;;;18.17;58.73;96919.84;4906568;29;20049;-80
2022/07/31 03:30:52;;;;;;;4.50;4.10;;;;;;;18.19;58.61;96917.81;4905629;29;20509;-77
2022/07/31 03:33:23;;;;;;;4.43;4.13;;;;;;;18.22;58.32;96917.38;4905929;29;20048;-78
2022/07/31 03:35:51;;;;;;;5.40;3.92;;;;;;;18.23;58.38;96917.13;4905358;29;20088;-79
2022/07/31 03:38:19;;;;;;;4.20;3.90;;;;;;;18.23;58.15;96911.84;4907610;29;20048;-82
2022/07/31 03:41:08;;;;;;;4.25;3.85;;;;;;;18.25;58.36;96916.91;4909586;29;20143;-80
2022/07/31 03:43:38;;;;;;;4.43;4.03;;;;;;;18.26;58.43;96913.25;4910457;29;20129;-79
2022/07/31 03:46:15;;;;;;;4.40;4.00;;;;;;;18.26;58.42;96913.25;4909391;29;20052;-82
2022/07/31 03:48:44;;;;;;;4.13;3.42;;;;;;;18.28;58.54;96913.84;4908843;29;20053;-80
2022/07/31 03:51:12;;;;;;;4.75;3.67;;;;;;;18.30;58.17;96917.03;4908432;29;20045;-79
2022/07/31 03:53:42;;;;;;;4.60;4.10;;;;;;;18.28;58.19;96913.84;4908011;29;20513;-77
2022/07/31 03:56:11;;;;;;;4.35;3.70;;;;;;;18.27;58.37;96904.28;4908185;29;20143;-79
2022/07/31 03:58:39;;;;;;;4.25;3.95;;;;;;;18.28;58.14;96900.66;4907686;29;20135;-77
2022/07/31 04:01:08;;;;;;;4.20;3.90;;;;;;;18.26;58.16;96905.34;4907212;29;20120;-77
2022/07/31 04:03:39;;;;;;;4.40;3.93;;;;;;;18.21;58.09;96905.97;4907209;29;20139;-79
2022/07/31 04:06:07;;;;;;;4.43;3.85;;;;;;;18.18;58.20;96910.91;4908193;29;20052;-77
2022/07/31 04:08:35;;;;;;;5.75;4.18;;;;;;;18.18;58.55;96916.19;4907407;29;20069;-79
2022/07/31 04:11:02;;;;;;;4.10;3.80;;;;;;;18.19;58.40;96916.00;4907724;29;20076;-79
2022/07/31 04:13:31;;;;;;;3.92;3.63;;;;;;;18.24;59.96;96916.13;4908373;29;20113;-80
2022/07/31 04:15:59;;;;;;;3.70;3.50;;;;;;;18.30;59.06;96914.41;4908269;29;20139;-77
2022/07/31 04:18:27;;;;;;;4.05;3.67;;;;;;;18.32;58.33;96917.63;4908108;29;20087;-77
2022/07/31 04:20:54;;;;;;;4.57;4.18;;;;;;;18.28;58.08;96922.56;4907057;29;20088;-79
2022/07/31 04:23:22;;;;;;;6.00;4.15;;;;;;;18.21;58.16;96923.66;4907579;29;20140;-79
2022/07/31 04:25:59;;;;;;;5.32;4.25;;;;;;;18.17;58.26;96936.53;4907322;29;20433;-77
2022/07/31 04:28:26;;;;;;;6.28;3.55;;;;;;;18.15;58.69;96933.28;4906561;29;20131;-79
2022/07/31 04:30:55;;;;;;;4.20;3.90;;;;;;;18.16;58.63;96942.00;4905459;29;20053;-78
2022/07/31 04:33:23;;;;;;;6.05;3.65;;;;;;;18.19;58.47;96939.75;4907671;29;20072;-81
2022/07/31 04:35:51;;;;;;;7.00;4.03;;;;;;;18.23;58.49;96940.88;4909276;29;20052;-79
2022/07/31 04:38:20;;;;;;;4.13;3.75;;;;;;;18.28;58.98;96943.69;4908031;29;20116;-78
2022/07/31 04:40:48;;;;;;;4.28;3.88;;;;;;;18.32;58.44;96944.03;4907569;29;20052;-77
2022/07/31 04:43:16;;;;;;;4.35;3.97;;;;;;;18.32;58.19;96949.31;4908330;29;20088;-77
2022/07/31 04:45:44;;;;;;;4.72;4.32;;;;;;;18.32;58.28;96934.31;4908240;29;20052;-76
2022/07/31 04:48:13;;;;;;;4.85;4.03;;;;;;;18.28;58.24;96942.91;4907779;29;20057;-77
2022/07/31 04:50:41;;;;;;;5.32;4.30;;;;;;;18.21;58.32;96939.50;4908039;29;20048;-78
2022/07/31 04:53:08;;;;;;;4.68;4.03;;;;;;;18.14;58.62;96936.16;4907530;29;20398;-77
2022/07/31 04:55:36;;;;;;;5.57;4.13;;;;;;;18.06;58.84;96935.44;4907570;29;20087;-79
2022/07/31 04:58:03;;;;;;;6.10;4.13;;;;;;;18.00;59.01;96931.03;4907319;29;20116;-80
2022/07/31 05:00:31;;;;;;;3.75;3.45;;;;;;;17.99;59.02;96934.69;4906342;29;20109;-78
2022/07/31 05:02:58;;;;;;;4.18;3.78;;;;;;;18.01;59.09;96935.25;4906289;29;20084;-77
2022/07/31 05:05:27;;;;;;;4.30;3.90;;;;;;;18.03;59.09;96937.69;4907265;29;20536;-79
2022/07/31 05:07:55;;;;;;;6.30;4.05;;;;;;;18.03;59.02;96935.84;4906033;29;20110;-78
2022/07/31 05:13:08;;;;;;;3.92;3.63;;;;;;;18.13;58.90;96938.00;4912928;29;20057;-79
2022/07/31 05:15:35;;;;;;;4.93;3.28;;;;;;;18.18;59.00;96947.88;4912190;29;20112;-82
2022/07/31 05:18:06;;;;;;;3.65;3.30;;;;;;;18.24;58.76;96937.25;4910754;29;20056;-79
2022/07/31 05:20:35;;;;;;;4.47;3.70;;;;;;;18.26;58.52;96943.09;4910964;29;20083;-79
2022/07/31 05:23:02;;;;;;;4.63;3.47;;;;;;;18.30;58.45;96938.16;4910436;29;20053;-78
2022/07/31 05:25:33;;;;;;;4.00;3.70;;;;;;;18.34;58.32;96947.25;4910505;29;20057;-79
2022/07/31 05:28:00;;;;;;;3.97;3.67;;;;;;;18.38;58.17;96945.78;4909361;29;20088;-78
2022/07/31 05:30:28;;;;;;;3.80;3.50;;;;;;;18.39;58.10;96942.13;4909619;29;20076;-79
2022/07/31 05:32:57;;;;;;;4.25;3.50;;;;;;;18.43;58.25;96948.59;4910681;29;20079;-79
2022/07/31 05:35:25;;;;;;;4.03;3.30;;;;;;;18.47;58.07;96941.81;4910590;29;20068;-78
2022/07/31 05:37:54;;;;;;;4.45;4.05;;;;;;;18.48;57.96;96947.91;4911468;29;20057;-79
2022/07/31 05:40:22;;;;;;;4.13;3.83;;;;;;;18.48;57.92;96945.28;4910195;29;20061;-78
2022/07/31 05:42:49;;;;;;;4.15;3.75;;;;;;;18.47;58.02;96947.09;4910117;29;20071;-79
2022/07/31 05:45:17;;;;;;;4.63;3.60;;;;;;;18.47;57.87;96947.09;4910583;29;20100;-79
2022/07/31 05:47:45;;;;;;;6.10;3.80;;;;;;;18.49;58.07;96950.31;4910390;29;20084;-77
2022/07/31 05:50:13;;;;;;;3.83;3.53;;;;;;;18.53;58.32;96955.97;4910614;29;20460;-78
2022/07/31 05:52:41;;;;;;;3.13;2.85;;;;;;;18.59;58.71;96955.09;4908483;29;20049;-78
2022/07/31 05:55:10;;;;;;;7.53;3.72;;;;;;;18.63;57.99;96955.41;4908960;29;20735;-79
2022/07/31 05:57:38;;;;;;;4.32;3.50;;;;;;;18.65;57.94;96948.91;4908322;29;20060;-78
2022/07/31 06:00:07;;;;;;;3.75;3.50;;;;;;;18.70;57.60;96961.44;4908913;29;20116;-76
2022/07/31 06:02:35;;;;;;;4.32;3.85;;;;;;;18.72;57.61;96959.38;4908254;29;20084;-78
2022/07/31 06:05:03;;;;;;;4.05;3.47;;;;;;;18.78;57.57;96958.50;4908074;29;20112;-78
2022/07/31 06:07:31;;;;;;;3.60;3.30;;;;;;;18.83;57.33;96961.28;4907192;29;20052;-78
2022/07/31 06:10:00;;;;;;;3.38;3.17;;;;;;;18.87;57.34;96957.16;4906746;29;20057;-75
2022/07/31 06:12:29;;;;;;;3.38;3.08;;;;;;;18.93;57.46;96961.56;4909989;29;20045;-76
2022/07/31 06:14:56;;;;;;;4.03;3.20;;;;;;;19.02;57.20;96950.63;4909035;29;20112;-78
2022/07/31 06:17:24;;;;;;;2.70;2.58;;;;;;;19.08;57.49;96953.16;4908729;29;20116;-78
2022/07/31 06:20:12;;;;;;;5.95;3.28;;;;;;;19.20;58.33;96955.84;4907702;29;20056;-79
2022/07/31 06:22:42;;;;;;;3.28;3.08;;;;;;;19.30;58.78;96958.72;4908117;29;20056;-78
2022/07/31 06:25:11;;;;;;;4.00;2.92;;;;;;;19.40;58.67;96955.53;4908286;29;20076;-79
2022/07/31 06:27:42;;;;;;;4.13;2.90;;;;;;;19.50;58.89;96954.94;4908113;29;20059;-79
2022/07/31 06:30:14;;;;;;;3.47;3.17;;;;;;;19.58;58.42;96946.66;4908220;29;20569;-79
2022/07/31 06:32:42;;;;;;;3.85;3.55;;;;;;;19.66;57.46;96948.97;4907765;29;20131;-78
2022/07/31 06:35:10;;;;;;;3.00;2.80;;;;;;;19.77;57.74;96957.97;4907288;29;20053;-81
2022/07/31 06:37:38;;;;;;;3.40;3.10;;;;;;;19.84;57.28;96950.72;4906738;29;20053;-77
2022/07/31 06:40:06;;;;;;;3.17;2.90;;;;;;;19.94;57.51;96958.06;4905796;29;20490;-79
2022/07/31 06:42:36;;;;;;;3.70;3.03;;;;;;;20.02;57.49;96949.75;4906861;29;20055;-77
2022/07/31 06:45:06;;;;;;;2.92;2.72;;;;;;;20.12;57.05;96955.28;4906202;29;20513;-79
2022/07/31 06:47:33;;;;;;;3.17;2.97;;;;;;;20.20;56.15;96953.28;4906499;29;20127;-77
2022/07/31 06:50:01;;;;;;;3.28;2.97;;;;;;;20.28;56.79;96958.22;4907270;29;20076;-78
2022/07/31 06:52:29;;;;;;;2.90;2.70;;;;;;;20.35;55.18;96962.34;4909262;29;20071;-82
2022/07/31 06:54:56;;;;;;;4.53;3.05;;;;;;;20.41;52.95;96959.81;4909199;29;20081;-80
2022/07/31 06:57:24;;;;;;;2.90;2.60;;;;;;;20.48;52.90;96955.16;4910157;29;20444;-79
2022/07/31 06:59:52;;;;;;;3.28;2.42;;;;;;;20.56;52.07;96954.81;4909234;29;20517;-80
2022/07/31 07:02:21;;;;;;;3.03;2.25;;;;;;;20.65;52.26;96960.56;4908801;29;20108;-81
2022/07/31 07:04:49;;;;;;;2.35;2.22;;;;;;;20.73;52.62;96952.22;4908418;29;20048;-79
2022/07/31 07:07:34;;;;;;;2.83;2.38;;;;;;;20.83;51.72;96960.34;4909579;29;20052;-80
2022/07/31 07:10:01;;;;;;;2.38;2.17;;;;;;;20.91;52.62;96959.16;4909916;29;20072;-80
2022/07/31 07:12:29;;;;;;;3.20;2.90;;;;;;;20.99;51.96;96956.13;4910167;29;20060;-79
2022/07/31 07:14:57;;;;;;;3.58;2.85;;;;;;;21.08;51.42;96969.78;4909637;29;20081;-80
2022/07/31 07:28:14;;;;;;;2.63;2.03;;;;;;;21.45;50.79;96964.84;5390673;23;20052;-80
2022/07/31 07:30:57;;;;;;;5.18;2.58;;;;;;;21.54;50.26;96962.59;4906379;29;20481;-80
2022/07/31 07:33:25;;;;;;;3.35;2.60;;;;;;;21.63;49.95;96958.50;4907428;29;20127;-81
2022/07/31 07:36:09;;;;;;;3.22;2.40;;;;;;;21.75;49.87;96953.88;4907106;29;20057;-80
2022/07/31 07:38:52;;;;;;;3.15;2.25;;;;;;;21.87;49.57;96947.66;4907275;29;20060;-78
2022/07/31 07:41:20;;;;;;;5.53;2.40;;;;;;;21.96;49.50;96943.53;4906585;29;20139;-80
2022/07/31 07:43:48;;;;;;;3.80;2.75;;;;;;;22.03;49.43;96944.16;4906529;29;20072;-80
2022/07/31 07:46:19;;;;;;;3.30;2.45;;;;;;;22.11;48.69;96946.38;4906219;29;20060;-80
2022/07/31 07:48:47;;;;;;;2.38;2.10;;;;;;;22.16;48.93;96935.81;4905545;29;20052;-80
2022/07/31 07:51:15;;;;;;;2.72;1.80;;;;;;;22.23;48.32;96942.81;4906057;29;20059;-79
2022/07/31 07:53:43;;;;;;;2.75;2.42;;;;;;;22.27;49.03;96942.06;4905744;29;20060;-81
2022/07/31 07:56:10;;;;;;;2.92;2.63;;;;;;;22.34;48.52;96939.22;4905388;29;20105;-79
2022/07/31 07:58:38;;;;;;;3.05;2.28;;;;;;;22.41;48.62;96939.81;4905337;29;20072;-80
2022/07/31 08:01:07;;;;;;;2.13;2.03;;;;;;;22.47;47.91;96936.19;4904890;29;20049;-78
2022/07/31 08:03:35;;;;;;;2.53;2.33;;;;;;;22.53;48.08;96937.84;4905268;29;20081;-79
2022/07/31 08:06:18;;;;;;;4.95;2.20;;;;;;;22.60;48.11;96943.75;4904930;29;20052;-81
2022/07/31 08:08:46;;;;;;;2.55;2.03;;;;;;;22.67;47.64;96948.09;4908612;29;20053;-80
2022/07/31 08:11:14;;;;;;;2.20;2.00;;;;;;;22.71;47.70;96954.50;4908766;29;20247;-78
2022/07/31 08:13:44;;;;;;;2.30;2.10;;;;;;;22.77;47.53;96959.63;4908334;29;20061;-79
2022/07/31 08:16:19;;;;;;;2.08;1.80;;;;;;;22.80;47.52;96945.03;4909999;29;20053;-78
2022/07/31 08:18:46;;;;;;;2.38;2.17;;;;;;;22.83;46.77;96952.50;4909303;29;20048;-80
2022/07/31 08:21:14;;;;;;;3.40;2.10;;;;;;;22.87;47.21;96953.63;4909490;29;20087;-81
2022/07/31 08:23:42;;;;;;;2.67;1.92;;;;;;;22.91;46.51;96954.69;4908523;29;20080;-80
2022/07/31 08:26:09;;;;;;;1.92;1.73;;;;;;;22.95;46.70;96950.47;4908745;29;20564;-80
2022/07/31 08:28:39;;;;;;;2.53;2.17;;;;;;;23.01;46.26;96943.41;4909655;29;20541;-79
2022/07/31 08:31:07;;;;;;;2.17;1.98;;;;;;;23.08;46.06;96945.84;4909134;29;20080;-80
2022/07/31 08:33:36;;;;;;;2.20;1.90;;;;;;;23.18;45.51;96944.06;4909147;29;20076;-79
2022/07/31 08:36:07;;;;;;;2.08;1.90;;;;;;;23.28;45.01;96943.34;4908400;29;20497;-80
2022/07/31 08:38:35;;;;;;;2.20;1.58;;;;;;;23.39;44.97;96950.34;4908512;29;20497;-78
2022/07/31 08:41:03;;;;;;;2.50;1.73;;;;;;;23.51;44.95;96947.50;4907848;29;20465;-79
2022/07/31 08:43:31;;;;;;;2.13;1.92;;;;;;;23.61;44.37;96952.91;4906949;29;20056;-83
2022/07/31 08:46:20;;;;;;;1.70;1.60;;;;;;;23.73;43.67;96943.91;4906944;29;20592;-79
2022/07/31 08:48:52;;;;;;;1.95;1.45;;;;;;;23.82;42.88;96945.06;4907009;29;20053;-78
2022/07/31 08:51:20;;;;;;;;;;;;;;;23.92;43.67;96946.97;4907319;29;20461;-80
2022/07/31 08:53:50;;;;;;;1.55;1.35;;;;;;;24.02;41.85;96942.50;4907886;29;19923;-79
2022/07/31 08:56:19;;;;;;;2.35;1.70;;;;;;;24.15;41.91;96937.75;4905661;29;20088;-79
2022/07/31 08:58:46;;;;;;;1.63;1.40;;;;;;;24.30;41.39;96945.03;4904712;29;20560;-82
2022/07/31 09:01:14;;;;;;;3.20;1.50;;;;;;;24.42;40.53;96940.25;4905592;29;20147;-78
2022/07/31 09:03:43;;;;;;;2.35;1.55;;;;;;;24.53;39.14;96941.91;4909410;29;20079;-81
2022/07/31 09:06:12;;;;;;;1.98;1.38;;;;;;;24.59;38.32;96948.84;4910178;29;20136;-80
2022/07/31 09:08:39;;;;;;;2.63;1.48;;;;;;;24.63;38.38;96939.25;4907682;29;20056;-79
2022/07/31 09:11:09;;;;;;;1.55;1.40;;;;;;;24.71;37.77;96937.13;4907768;29;20077;-81
2022/07/31 09:13:37;;;;;;;1.20;1.10;;;;;;;24.80;37.20;96932.91;4907399;29;20135;-79
2022/07/31 09:16:06;;;;;;;2.97;1.50;;;;;;;24.90;36.96;96929.44;4908897;29;20107;-81
2022/07/31 09:18:33;;;;;;;1.73;1.50;;;;;;;25.01;36.34;96931.84;4908031;29;20056;-79
2022/07/31 09:21:03;;;;;;;1.65;1.20;;;;;;;25.12;36.00;96942.53;4908494;29;20571;-82
2022/07/31 09:23:32;;;;;;;2.85;1.20;;;;;;;25.19;35.50;96949.25;4908230;29;20076;-79
2022/07/31 09:26:02;;;;;;;2.25;1.10;;;;;;;25.24;34.03;96941.22;4908092;29;20068;-80
2022/07/31 09:28:34;;;;;;;1.60;1.48;;;;;;;25.27;35.14;96939.88;4906764;29;20080;-80
2022/07/31 09:31:03;;;;;;;1.30;1.20;;;;;;;25.28;35.18;96941.50;4906937;29;20505;-82
2022/07/31 09:33:31;;;;;;;1.25;1.13;;;;;;;25.29;35.07;96945.75;4908823;29;20112;-81
2022/07/31 09:35:59;;;;;;;1.55;1.20;;;;;;;25.32;35.61;96931.88;4908716;29;20053;-81
2022/07/31 09:38:34;;;;;;;1.30;1.20;;;;;;;25.38;34.39;96932.66;4908686;29;20052;-81
2022/07/31 09:41:09;;;;;;;3.13;1.23;;;;;;;25.40;34.23;96934.00;4910318;29;20064;-83
2022/07/31 09:43:59;;;;;;;2.55;1.30;;;;;;;25.42;35.05;96937.19;4913887;29;20052;-83
2022/07/31 09:46:38;;;;;;;3.90;1.25;;;;;;;25.46;35.08;96935.59;4912978;29;20052;-83
2022/07/31 09:49:06;;;;;;;1.48;1.05;;;;;;;25.56;35.66;96932.13;4912762;29;20057;-83
2022/07/31 09:51:39;;;;;;;1.35;0.95;;;;;;;25.66;33.84;96920.59;4913138;29;20100;-83
2022/07/31 09:54:08;;;;;;;0.95;0.90;;;;;;;25.75;33.00;96937.69;4913176;29;20516;-81
2022/07/31 09:56:36;;;;;;;1.27;0.98;;;;;;;25.84;32.74;96928.03;4912489;29;20100;-82
2022/07/31 09:59:05;;;;;;;2.20;1.13;;;;;;;25.93;32.38;96930.97;4912470;29;20081;-82
2022/07/31 10:01:35;;;;;;;1.15;0.98;;;;;;;25.98;31.63;96930.97;4911539;29;20056;-82
2022/07/31 10:04:04;;;;;;;0.60;0.60;;;;;;;26.01;30.67;96932.31;4911924;29;20104;-81
2022/07/31 10:06:34;;;;;;;1.30;1.20;;;;;;;26.06;31.38;96930.41;4911101;29;20057;-82
2022/07/31 10:09:04;;;;;;;2.47;0.98;;;;;;;26.13;31.65;96919.44;4910754;29;20068;-80
2022/07/31 10:11:33;;;;;;;1.10;1.00;;;;;;;26.19;31.47;96920.97;4911119;29;20076;-82
2022/07/31 10:14:02;;;;;;;1.40;0.95;;;;;;;26.27;31.03;96920.41;4910852;29;20064;-82
2022/07/31 10:16:36;;;;;;;1.40;1.10;;;;;;;26.37;30.31;96913.41;4909601;29;20049;-84
2022/07/31 10:19:10;;;;;;;1.20;1.10;;;;;;;26.47;30.13;96908.81;4909889;29;20052;-83
2022/07/31 10:21:46;;;;;;;1.88;1.42;;;;;;;26.60;30.20;96903.97;4909081;29;20591;-81
2022/07/31 10:24:16;;;;;;;2.40;1.17;;;;;;;26.74;30.06;96898.78;4909438;29;20193;-81
2022/07/31 10:26:45;;;;;;;1.13;0.73;;;;;;;26.85;29.12;96900.31;4913516;29;20056;-81
2022/07/31 10:29:35;;;;;;;1.30;1.20;;;;;;;26.98;30.23;96896.19;4912686;29;20111;-82
2022/07/31 10:32:03;;;;;;;2.88;1.02;;;;;;;27.15;29.97;96898.47;4911764;29;20080;-82
2022/07/31 10:34:33;;;;;;;2.40;0.90;;;;;;;27.30;29.57;96898.38;4912168;29;20139;-81
2022/07/31 10:37:07;;;;;;;3.53;0.95;;;;;;;27.42;29.31;96880.03;4912959;29;20072;-81
2022/07/31 10:39:45;;;;;;;1.23;1.13;;;;;;;27.54;29.42;96888.47;4912481;29;20080;-81
2022/07/31 10:42:22;;;;;;;0.70;0.70;;;;;;;27.65;29.68;96883.81;4911974;29;20052;-81
2022/07/31 10:44:55;;;;;;;1.27;0.93;;;;;;;27.73;29.53;96880.50;4911892;29;20064;-81
2022/07/31 10:47:24;;;;;;;1.80;1.20;;;;;;;27.78;29.51;96882.31;4911325;29;20060;-82
2022/07/31 10:49:52;;;;;;;1.00;0.93;;;;;;;27.81;29.30;96871.03;4911198;29;20063;-84
2022/07/31 10:52:27;;;;;;;1.88;1.10;;;;;;;27.84;29.61;96883.88;4911991;29;20437;-79
2022/07/31 10:54:57;;;;;;;3.45;1.00;;;;;;;27.84;29.34;96883.88;4910791;29;20087;-82
2022/07/31 10:57:27;;;;;;;2.42;1.15;;;;;;;27.83;29.37;96879.56;4910206;29;20052;-81
2022/07/31 10:59:55;;;;;;;0.93;0.90;;;;;;;27.85;29.59;96877.44;4910458;29;20052;-81
2022/07/31 11:02:30;;;;;;;2.38;0.90;;;;;;;27.89;29.16;96873.09;4909524;29;20052;-82
2022/07/31 11:05:09;;;;;;;2.05;1.17;;;;;;;27.92;29.82;96869.88;4909363;29;20076;-81
2022/07/31 11:07:37;;;;;;;2.28;1.42;;;;;;;27.98;29.59;96872.47;4908665;29;20114;-81
2022/07/31 11:10:12;;;;;;;2.42;1.00;;;;;;;28.04;29.66;96868.66;4908491;29;20080;-81
2022/07/31 11:12:41;;;;;;;1.42;1.05;;;;;;;28.10;29.59;96867.50;4908836;29;20057;-80
2022/07/31 11:15:21;;;;;;;0.85;0.85;;;;;;;28.15;29.99;96864.75;4908529;29;20129;-82
2022/07/31 11:17:49;;;;;;;1.92;0.95;;;;;;;28.15;29.70;96854.03;4908361;29;20052;-80
2022/07/31 11:20:37;;;;;;;0.95;0.73;;;;;;;28.21;30.21;96858.22;4908166;29;20062;-80
2022/07/31 11:23:07;;;;;;;1.17;1.00;;;;;;;28.25;30.07;96859.25;4909011;29;20087;-82
2022/07/31 11:25:36;;;;;;;3.42;1.35;;;;;;;28.29;30.05;96860.25;4909510;29;20055;-84
2022/07/31 11:28:14;;;;;;;2.17;0.90;;;;;;;28.33;29.87;96850.53;4908483;29;20135;-83
2022/07/31 11:30:50;;;;;;;1.30;0.93;;;;;;;28.37;29.39;96860.69;4908506;29;20518;-80
2022/07/31 11:33:34;;;;;;;1.52;1.15;;;;;;;28.42;30.17;96847.19;4909729;29;20079;-81
2022/07/31 11:36:12;;;;;;;1.10;0.97;;;;;;;28.49;29.51;96844.97;4908833;29;20045;-83
2022/07/31 11:38:41;;;;;;;1.45;0.82;;;;;;;28.55;29.79;96852.66;4908491;29;20063;-80
2022/07/31 11:41:10;;;;;;;1.10;0.95;;;;;;;28.56;29.50;96848.09;4908780;29;20406;-81
2022/07/31 11:43:45;;;;;;;0.90;0.90;;;;;;;28.53;29.23;96841.44;4913121;29;20509;-82
2022/07/31 11:46:13;;;;;;;1.90;1.20;;;;;;;28.55;29.74;96835.75;4912554;29;20143;-82
2022/07/31 11:48:40;;;;;;;2.50;1.35;;;;;;;28.60;29.75;96824.16;4912648;29;20064;-84
2022/07/31 11:51:16;;;;;;;1.10;1.00;;;;;;;28.63;29.09;96835.09;4911277;29;20057;-82
2022/07/31 11:53:44;;;;;;;1.50;1.00;;;;;;;28.64;29.55;96819.78;4911942;29;20509;-82
2022/07/31 11:56:17;;;;;;;1.00;0.90;;;;;;;28.65;29.50;96824.88;4911681;29;20429;-83
2022/07/31 11:58:50;;;;;;;1.20;1.10;;;;;;;28.67;29.47;96814.66;4911440;29;20135;-85
2022/07/31 12:01:19;;;;;;;0.85;0.85;;;;;;;28.67;29.70;96817.34;4912157;29;20056;-84